sensor_id;sensor_type;location;lat;lon;timestamp;temperature;humidity
4354;DHT22;11018;51.258;6.806;2023-09-18T00:02:20;20.50;71.70
4354;DHT22;11018;51.258;6.806;2023-09-18T00:04:46;20.40;72.50
4354;DHT22;11018;51.258;6.806;2023-09-18T00:07:11;20.30;73.60
4354;DHT22;11018;51.258;6.806;2023-09-18T00:09:37;20.20;73.70
4354;DHT22;11018;51.258;6.806;2023-09-18T00:12:03;20.20;74.20
4354;DHT22;11018;51.258;6.806;2023-09-18T00:14:29;20.20;74.40
4354;DHT22;11018;51.258;6.806;2023-09-18T00:16:54;20.10;74.60
4354;DHT22;11018;51.258;6.806;2023-09-18T00:19:22;20.10;74.90
4354;DHT22;11018;51.258;6.806;2023-09-18T00:21:48;20.10;75.10
4354;DHT22;11018;51.258;6.806;2023-09-18T00:24:14;20.00;75.20
4354;DHT22;11018;51.258;6.806;2023-09-18T00:26:40;20.00;75.50
4354;DHT22;11018;51.258;6.806;2023-09-18T00:29:05;20.00;75.70
4354;DHT22;11018;51.258;6.806;2023-09-18T00:31:31;19.90;76.30
4354;DHT22;11018;51.258;6.806;2023-09-18T00:33:56;19.90;76.70
4354;DHT22;11018;51.258;6.806;2023-09-18T00:36:22;19.90;76.90
4354;DHT22;11018;51.258;6.806;2023-09-18T00:38:47;19.90;77.10
4354;DHT22;11018;51.258;6.806;2023-09-18T00:41:13;19.80;77.40
4354;DHT22;11018;51.258;6.806;2023-09-18T00:43:39;19.80;78.60
4354;DHT22;11018;51.258;6.806;2023-09-18T00:46:05;19.80;78.70
4354;DHT22;11018;51.258;6.806;2023-09-18T00:48:30;19.80;79.00
4354;DHT22;11018;51.258;6.806;2023-09-18T00:50:56;19.70;79.20
4354;DHT22;11018;51.258;6.806;2023-09-18T00:53:23;19.70;80.00
4354;DHT22;11018;51.258;6.806;2023-09-18T00:55:53;19.70;79.30
4354;DHT22;11018;51.258;6.806;2023-09-18T00:58:22;19.80;80.20
4354;DHT22;11018;51.258;6.806;2023-09-18T01:00:47;19.70;80.00
4354;DHT22;11018;51.258;6.806;2023-09-18T01:03:16;19.70;80.20
4354;DHT22;11018;51.258;6.806;2023-09-18T01:05:44;19.60;80.50
4354;DHT22;11018;51.258;6.806;2023-09-18T01:08:10;19.60;81.00
4354;DHT22;11018;51.258;6.806;2023-09-18T01:11:10;19.70;81.20
4354;DHT22;11018;51.258;6.806;2023-09-18T01:13:49;19.60;80.80
4354;DHT22;11018;51.258;6.806;2023-09-18T01:16:39;19.70;81.10
4354;DHT22;11018;51.258;6.806;2023-09-18T01:19:09;19.60;80.70
4354;DHT22;11018;51.258;6.806;2023-09-18T01:21:35;19.70;81.20
4354;DHT22;11018;51.258;6.806;2023-09-18T01:24:00;19.70;80.90
4354;DHT22;11018;51.258;6.806;2023-09-18T01:26:26;19.70;80.80
4354;DHT22;11018;51.258;6.806;2023-09-18T01:28:51;19.70;80.30
4354;DHT22;11018;51.258;6.806;2023-09-18T01:31:17;19.70;79.40
4354;DHT22;11018;51.258;6.806;2023-09-18T01:33:44;19.70;78.60
4354;DHT22;11018;51.258;6.806;2023-09-18T01:36:13;19.80;77.80
4354;DHT22;11018;51.258;6.806;2023-09-18T01:38:40;19.80;77.60
4354;DHT22;11018;51.258;6.806;2023-09-18T01:41:06;19.80;77.20
4354;DHT22;11018;51.258;6.806;2023-09-18T01:43:32;19.90;75.90
4354;DHT22;11018;51.258;6.806;2023-09-18T01:45:58;19.80;76.20
4354;DHT22;11018;51.258;6.806;2023-09-18T01:48:23;19.90;75.60
4354;DHT22;11018;51.258;6.806;2023-09-18T01:50:49;19.90;75.40
4354;DHT22;11018;51.258;6.806;2023-09-18T01:53:14;19.90;74.70
4354;DHT22;11018;51.258;6.806;2023-09-18T01:55:40;19.90;75.20
4354;DHT22;11018;51.258;6.806;2023-09-18T01:58:06;19.80;75.00
4354;DHT22;11018;51.258;6.806;2023-09-18T02:00:32;19.90;73.20
4354;DHT22;11018;51.258;6.806;2023-09-18T02:02:59;19.90;74.10
4354;DHT22;11018;51.258;6.806;2023-09-18T02:05:24;19.80;74.70
4354;DHT22;11018;51.258;6.806;2023-09-18T02:07:50;19.80;75.50
4354;DHT22;11018;51.258;6.806;2023-09-18T02:10:15;19.80;75.80
4354;DHT22;11018;51.258;6.806;2023-09-18T02:12:42;19.80;76.10
4354;DHT22;11018;51.258;6.806;2023-09-18T02:15:07;19.70;76.00
4354;DHT22;11018;51.258;6.806;2023-09-18T02:17:35;19.80;75.80
4354;DHT22;11018;51.258;6.806;2023-09-18T02:20:03;19.80;75.50
4354;DHT22;11018;51.258;6.806;2023-09-18T02:22:32;19.80;75.10
4354;DHT22;11018;51.258;6.806;2023-09-18T02:24:58;19.90;74.20
4354;DHT22;11018;51.258;6.806;2023-09-18T02:27:24;19.90;74.80
4354;DHT22;11018;51.258;6.806;2023-09-18T02:29:49;19.80;75.50
4354;DHT22;11018;51.258;6.806;2023-09-18T02:32:16;19.80;75.40
4354;DHT22;11018;51.258;6.806;2023-09-18T02:34:41;19.80;75.30
4354;DHT22;11018;51.258;6.806;2023-09-18T02:37:07;19.70;76.50
4354;DHT22;11018;51.258;6.806;2023-09-18T02:39:32;19.80;76.30
4354;DHT22;11018;51.258;6.806;2023-09-18T02:41:58;19.70;77.00
4354;DHT22;11018;51.258;6.806;2023-09-18T02:44:23;19.80;76.90
4354;DHT22;11018;51.258;6.806;2023-09-18T02:46:49;20.00;74.00
4354;DHT22;11018;51.258;6.806;2023-09-18T02:49:14;20.10;73.00
4354;DHT22;11018;51.258;6.806;2023-09-18T02:51:40;20.20;70.70
4354;DHT22;11018;51.258;6.806;2023-09-18T02:54:06;20.40;67.50
4354;DHT22;11018;51.258;6.806;2023-09-18T02:56:31;20.50;65.70
4354;DHT22;11018;51.258;6.806;2023-09-18T02:58:57;20.50;64.80
4354;DHT22;11018;51.258;6.806;2023-09-18T03:01:22;20.60;63.90
4354;DHT22;11018;51.258;6.806;2023-09-18T03:03:48;20.60;63.20
4354;DHT22;11018;51.258;6.806;2023-09-18T03:06:13;20.70;63.00
4354;DHT22;11018;51.258;6.806;2023-09-18T03:08:39;20.70;64.10
4354;DHT22;11018;51.258;6.806;2023-09-18T03:11:14;20.70;63.70
4354;DHT22;11018;51.258;6.806;2023-09-18T03:13:44;20.70;64.00
4354;DHT22;11018;51.258;6.806;2023-09-18T03:16:12;20.60;65.90
4354;DHT22;11018;51.258;6.806;2023-09-18T03:18:38;20.50;66.70
4354;DHT22;11018;51.258;6.806;2023-09-18T03:21:03;20.40;67.60
4354;DHT22;11018;51.258;6.806;2023-09-18T03:23:29;20.40;68.20
4354;DHT22;11018;51.258;6.806;2023-09-18T03:25:55;20.30;68.90
4354;DHT22;11018;51.258;6.806;2023-09-18T03:28:20;20.30;69.10
4354;DHT22;11018;51.258;6.806;2023-09-18T03:30:46;20.40;68.10
4354;DHT22;11018;51.258;6.806;2023-09-18T03:33:11;20.40;68.30
4354;DHT22;11018;51.258;6.806;2023-09-18T03:35:48;20.30;69.70
4354;DHT22;11018;51.258;6.806;2023-09-18T03:38:14;20.50;68.20
4354;DHT22;11018;51.258;6.806;2023-09-18T03:40:40;20.40;70.00
4354;DHT22;11018;51.258;6.806;2023-09-18T03:43:06;20.30;72.10
4354;DHT22;11018;51.258;6.806;2023-09-18T03:45:32;20.30;72.80
4354;DHT22;11018;51.258;6.806;2023-09-18T03:47:58;20.20;73.80
4354;DHT22;11018;51.258;6.806;2023-09-18T03:50:23;20.10;74.80
4354;DHT22;11018;51.258;6.806;2023-09-18T03:52:49;20.20;74.90
4354;DHT22;11018;51.258;6.806;2023-09-18T03:55:14;20.20;74.00
4354;DHT22;11018;51.258;6.806;2023-09-18T03:57:42;20.30;72.10
4354;DHT22;11018;51.258;6.806;2023-09-18T04:00:08;20.30;71.30
4354;DHT22;11018;51.258;6.806;2023-09-18T04:02:34;20.30;70.70
4354;DHT22;11018;51.258;6.806;2023-09-18T04:05:00;20.30;71.20
4354;DHT22;11018;51.258;6.806;2023-09-18T04:07:26;20.30;70.80
4354;DHT22;11018;51.258;6.806;2023-09-18T04:09:51;20.40;70.40
4354;DHT22;11018;51.258;6.806;2023-09-18T04:12:17;20.40;69.80
4354;DHT22;11018;51.258;6.806;2023-09-18T04:14:43;20.50;68.10
4354;DHT22;11018;51.258;6.806;2023-09-18T04:17:08;20.40;68.40
4354;DHT22;11018;51.258;6.806;2023-09-18T04:19:34;20.40;68.90
4354;DHT22;11018;51.258;6.806;2023-09-18T04:21:59;20.40;69.20
4354;DHT22;11018;51.258;6.806;2023-09-18T04:24:26;20.40;68.80
4354;DHT22;11018;51.258;6.806;2023-09-18T04:26:51;20.40;69.00
4354;DHT22;11018;51.258;6.806;2023-09-18T04:29:18;20.50;69.10
4354;DHT22;11018;51.258;6.806;2023-09-18T04:31:43;20.50;69.60
4354;DHT22;11018;51.258;6.806;2023-09-18T04:34:09;20.60;68.60
4354;DHT22;11018;51.258;6.806;2023-09-18T04:36:35;20.70;67.20
4354;DHT22;11018;51.258;6.806;2023-09-18T04:39:02;20.60;68.20
4354;DHT22;11018;51.258;6.806;2023-09-18T04:41:30;20.50;69.90
4354;DHT22;11018;51.258;6.806;2023-09-18T04:43:55;20.40;71.90
4354;DHT22;11018;51.258;6.806;2023-09-18T04:46:21;20.30;73.30
4354;DHT22;11018;51.258;6.806;2023-09-18T04:48:46;20.20;74.90
4354;DHT22;11018;51.258;6.806;2023-09-18T04:51:12;20.20;76.10
4354;DHT22;11018;51.258;6.806;2023-09-18T04:53:38;20.30;75.20
4354;DHT22;11018;51.258;6.806;2023-09-18T04:56:03;20.20;75.50
4354;DHT22;11018;51.258;6.806;2023-09-18T04:58:30;20.10;77.50
4354;DHT22;11018;51.258;6.806;2023-09-18T05:00:57;20.00;79.10
4354;DHT22;11018;51.258;6.806;2023-09-18T05:03:23;20.10;80.10
4354;DHT22;11018;51.258;6.806;2023-09-18T05:05:49;20.10;80.30
4354;DHT22;11018;51.258;6.806;2023-09-18T05:08:14;20.10;79.90
4354;DHT22;11018;51.258;6.806;2023-09-18T05:10:40;20.10;80.20
4354;DHT22;11018;51.258;6.806;2023-09-18T05:13:06;20.10;80.10
4354;DHT22;11018;51.258;6.806;2023-09-18T05:15:32;20.10;79.20
4354;DHT22;11018;51.258;6.806;2023-09-18T05:17:59;20.20;78.30
4354;DHT22;11018;51.258;6.806;2023-09-18T05:20:26;20.20;77.60
4354;DHT22;11018;51.258;6.806;2023-09-18T05:22:54;20.20;76.80
4354;DHT22;11018;51.258;6.806;2023-09-18T05:25:23;20.30;75.00
4354;DHT22;11018;51.258;6.806;2023-09-18T05:27:50;20.30;74.40
4354;DHT22;11018;51.258;6.806;2023-09-18T05:30:24;20.30;75.10
4354;DHT22;11018;51.258;6.806;2023-09-18T05:32:53;20.40;73.60
4354;DHT22;11018;51.258;6.806;2023-09-18T05:35:19;20.50;73.10
4354;DHT22;11018;51.258;6.806;2023-09-18T05:37:44;20.30;73.80
4354;DHT22;11018;51.258;6.806;2023-09-18T05:40:11;20.40;73.10
4354;DHT22;11018;51.258;6.806;2023-09-18T05:42:45;20.40;71.80
4354;DHT22;11018;51.258;6.806;2023-09-18T05:45:12;20.50;71.00
4354;DHT22;11018;51.258;6.806;2023-09-18T05:47:38;20.50;69.60
4354;DHT22;11018;51.258;6.806;2023-09-18T05:50:06;20.50;69.30
4354;DHT22;11018;51.258;6.806;2023-09-18T05:52:32;20.50;69.10
4354;DHT22;11018;51.258;6.806;2023-09-18T05:54:59;20.50;69.10
4354;DHT22;11018;51.258;6.806;2023-09-18T05:57:24;20.60;67.90
4354;DHT22;11018;51.258;6.806;2023-09-18T05:59:50;20.70;66.60
4354;DHT22;11018;51.258;6.806;2023-09-18T06:02:15;20.70;65.80
4354;DHT22;11018;51.258;6.806;2023-09-18T06:04:42;20.80;64.80
4354;DHT22;11018;51.258;6.806;2023-09-18T06:07:08;20.90;63.10
4354;DHT22;11018;51.258;6.806;2023-09-18T06:09:34;21.00;63.80
4354;DHT22;11018;51.258;6.806;2023-09-18T06:12:00;21.00;61.80
4354;DHT22;11018;51.258;6.806;2023-09-18T06:14:25;21.00;62.50
4354;DHT22;11018;51.258;6.806;2023-09-18T06:16:51;21.10;61.00
4354;DHT22;11018;51.258;6.806;2023-09-18T06:19:17;21.20;60.80
4354;DHT22;11018;51.258;6.806;2023-09-18T06:21:43;21.20;59.50
4354;DHT22;11018;51.258;6.806;2023-09-18T06:24:09;21.20;58.60
4354;DHT22;11018;51.258;6.806;2023-09-18T06:26:35;21.20;58.20
4354;DHT22;11018;51.258;6.806;2023-09-18T06:29:01;21.30;57.50
4354;DHT22;11018;51.258;6.806;2023-09-18T06:31:27;21.30;57.40
4354;DHT22;11018;51.258;6.806;2023-09-18T06:33:53;21.40;55.90
4354;DHT22;11018;51.258;6.806;2023-09-18T06:36:19;21.40;55.20
4354;DHT22;11018;51.258;6.806;2023-09-18T06:38:44;21.40;54.20
4354;DHT22;11018;51.258;6.806;2023-09-18T06:41:10;21.50;53.90
4354;DHT22;11018;51.258;6.806;2023-09-18T06:43:35;21.50;53.10
4354;DHT22;11018;51.258;6.806;2023-09-18T06:46:01;21.50;53.70
4354;DHT22;11018;51.258;6.806;2023-09-18T06:48:26;21.60;52.00
4354;DHT22;11018;51.258;6.806;2023-09-18T06:50:52;21.70;52.20
4354;DHT22;11018;51.258;6.806;2023-09-18T06:53:18;21.80;50.40
4354;DHT22;11018;51.258;6.806;2023-09-18T06:55:43;21.70;50.50
4354;DHT22;11018;51.258;6.806;2023-09-18T06:58:09;21.80;50.50
4354;DHT22;11018;51.258;6.806;2023-09-18T07:00:34;21.90;49.20
4354;DHT22;11018;51.258;6.806;2023-09-18T07:03:00;21.90;49.90
4354;DHT22;11018;51.258;6.806;2023-09-18T07:05:25;21.90;48.90
4354;DHT22;11018;51.258;6.806;2023-09-18T07:07:51;22.00;48.40
4354;DHT22;11018;51.258;6.806;2023-09-18T07:10:17;22.10;47.40
4354;DHT22;11018;51.258;6.806;2023-09-18T07:12:42;22.10;46.90
4354;DHT22;11018;51.258;6.806;2023-09-18T07:15:17;22.20;46.90
4354;DHT22;11018;51.258;6.806;2023-09-18T07:17:43;22.30;46.30
4354;DHT22;11018;51.258;6.806;2023-09-18T07:20:08;22.30;46.10
4354;DHT22;11018;51.258;6.806;2023-09-18T07:22:45;22.30;45.70
4354;DHT22;11018;51.258;6.806;2023-09-18T07:25:11;22.20;45.80
4354;DHT22;11018;51.258;6.806;2023-09-18T07:27:36;22.20;45.90
4354;DHT22;11018;51.258;6.806;2023-09-18T07:30:04;22.20;45.60
4354;DHT22;11018;51.258;6.806;2023-09-18T07:32:30;22.30;45.70
4354;DHT22;11018;51.258;6.806;2023-09-18T07:34:55;22.30;45.90
4354;DHT22;11018;51.258;6.806;2023-09-18T07:37:21;22.40;44.40
4354;DHT22;11018;51.258;6.806;2023-09-18T07:39:47;22.50;43.90
4354;DHT22;11018;51.258;6.806;2023-09-18T07:42:12;22.60;44.10
4354;DHT22;11018;51.258;6.806;2023-09-18T07:44:38;22.70;42.50
4354;DHT22;11018;51.258;6.806;2023-09-18T07:47:03;22.60;42.70
4354;DHT22;11018;51.258;6.806;2023-09-18T07:49:29;22.70;42.60
4354;DHT22;11018;51.258;6.806;2023-09-18T07:51:55;22.60;42.00
4354;DHT22;11018;51.258;6.806;2023-09-18T07:54:21;22.60;42.30
4354;DHT22;11018;51.258;6.806;2023-09-18T07:56:46;22.70;41.50
4354;DHT22;11018;51.258;6.806;2023-09-18T07:59:12;22.90;41.60
4354;DHT22;11018;51.258;6.806;2023-09-18T08:01:40;23.00;40.20
4354;DHT22;11018;51.258;6.806;2023-09-18T08:04:06;23.10;39.70
4354;DHT22;11018;51.258;6.806;2023-09-18T08:06:31;23.20;39.10
4354;DHT22;11018;51.258;6.806;2023-09-18T08:08:57;23.20;38.30
4354;DHT22;11018;51.258;6.806;2023-09-18T08:11:22;23.10;37.80
4354;DHT22;11018;51.258;6.806;2023-09-18T08:13:48;23.00;38.50
4354;DHT22;11018;51.258;6.806;2023-09-18T08:16:13;23.00;39.20
4354;DHT22;11018;51.258;6.806;2023-09-18T08:18:39;23.20;38.20
4354;DHT22;11018;51.258;6.806;2023-09-18T08:21:07;23.20;38.30
4354;DHT22;11018;51.258;6.806;2023-09-18T08:23:35;23.40;36.80
4354;DHT22;11018;51.258;6.806;2023-09-18T08:26:01;23.40;36.70
4354;DHT22;11018;51.258;6.806;2023-09-18T08:28:29;23.40;36.80
4354;DHT22;11018;51.258;6.806;2023-09-18T08:30:54;23.30;37.00
4354;DHT22;11018;51.258;6.806;2023-09-18T08:33:20;23.40;36.40
4354;DHT22;11018;51.258;6.806;2023-09-18T08:35:46;23.60;36.30
4354;DHT22;11018;51.258;6.806;2023-09-18T08:38:13;23.60;35.60
4354;DHT22;11018;51.258;6.806;2023-09-18T08:40:40;23.50;35.70
4354;DHT22;11018;51.258;6.806;2023-09-18T08:43:08;23.60;35.60
4354;DHT22;11018;51.258;6.806;2023-09-18T08:45:53;23.60;35.70
4354;DHT22;11018;51.258;6.806;2023-09-18T08:48:20;23.70;35.00
4354;DHT22;11018;51.258;6.806;2023-09-18T08:50:47;23.90;34.60
4354;DHT22;11018;51.258;6.806;2023-09-18T08:53:13;24.00;33.00
4354;DHT22;11018;51.258;6.806;2023-09-18T08:55:40;24.00;33.10
4354;DHT22;11018;51.258;6.806;2023-09-18T08:58:06;24.10;32.80
4354;DHT22;11018;51.258;6.806;2023-09-18T09:00:33;24.10;32.90
4354;DHT22;11018;51.258;6.806;2023-09-18T09:03:01;24.10;32.60
4354;DHT22;11018;51.258;6.806;2023-09-18T09:05:26;24.20;32.10
4354;DHT22;11018;51.258;6.806;2023-09-18T09:07:52;24.30;32.00
4354;DHT22;11018;51.258;6.806;2023-09-18T09:10:18;24.60;31.30
4354;DHT22;11018;51.258;6.806;2023-09-18T09:12:51;24.60;31.30
4354;DHT22;11018;51.258;6.806;2023-09-18T09:15:25;24.70;30.40
4354;DHT22;11018;51.258;6.806;2023-09-18T09:18:03;24.90;30.20
4354;DHT22;11018;51.258;6.806;2023-09-18T09:20:29;24.90;30.00
4354;DHT22;11018;51.258;6.806;2023-09-18T09:23:03;24.80;29.60
4354;DHT22;11018;51.258;6.806;2023-09-18T09:25:30;24.70;30.00
4354;DHT22;11018;51.258;6.806;2023-09-18T09:28:01;24.80;29.50
4354;DHT22;11018;51.258;6.806;2023-09-18T09:30:28;25.00;29.10
4354;DHT22;11018;51.258;6.806;2023-09-18T09:32:56;24.90;28.40
4354;DHT22;11018;51.258;6.806;2023-09-18T09:35:26;25.00;29.00
4354;DHT22;11018;51.258;6.806;2023-09-18T09:38:06;25.10;28.40
4354;DHT22;11018;51.258;6.806;2023-09-18T09:40:32;25.00;28.70
4354;DHT22;11018;51.258;6.806;2023-09-18T09:42:58;25.10;28.50
4354;DHT22;11018;51.258;6.806;2023-09-18T09:45:29;25.00;28.50
4354;DHT22;11018;51.258;6.806;2023-09-18T09:48:05;24.80;28.30
4354;DHT22;11018;51.258;6.806;2023-09-18T09:50:32;24.80;28.40
4354;DHT22;11018;51.258;6.806;2023-09-18T09:52:58;25.10;28.50
4354;DHT22;11018;51.258;6.806;2023-09-18T09:55:32;25.10;27.80
4354;DHT22;11018;51.258;6.806;2023-09-18T09:58:04;25.10;27.20
4354;DHT22;11018;51.258;6.806;2023-09-18T10:00:39;25.00;27.10
4354;DHT22;11018;51.258;6.806;2023-09-18T10:03:10;24.80;28.30
4354;DHT22;11018;51.258;6.806;2023-09-18T10:05:42;24.90;28.20
4354;DHT22;11018;51.258;6.806;2023-09-18T10:08:25;24.90;27.90
4354;DHT22;11018;51.258;6.806;2023-09-18T10:10:53;24.80;28.30
4354;DHT22;11018;51.258;6.806;2023-09-18T10:13:36;24.80;28.00
4354;DHT22;11018;51.258;6.806;2023-09-18T10:16:07;24.60;28.60
4354;DHT22;11018;51.258;6.806;2023-09-18T10:21:41;24.60;29.00
4354;DHT22;11018;51.258;6.806;2023-09-18T10:24:22;24.60;28.40
4354;DHT22;11018;51.258;6.806;2023-09-18T10:26:57;24.40;28.70
4354;DHT22;11018;51.258;6.806;2023-09-18T10:29:24;24.40;28.60
4354;DHT22;11018;51.258;6.806;2023-09-18T10:31:51;24.40;28.20
4354;DHT22;11018;51.258;6.806;2023-09-18T10:34:21;24.40;28.50
4354;DHT22;11018;51.258;6.806;2023-09-18T10:36:48;24.40;29.00
4354;DHT22;11018;51.258;6.806;2023-09-18T10:39:14;24.40;28.80
4354;DHT22;11018;51.258;6.806;2023-09-18T10:41:47;24.30;29.20
4354;DHT22;11018;51.258;6.806;2023-09-18T10:44:14;24.40;28.80
4354;DHT22;11018;51.258;6.806;2023-09-18T10:46:39;24.40;29.00
4354;DHT22;11018;51.258;6.806;2023-09-18T10:49:05;24.50;28.40
4354;DHT22;11018;51.258;6.806;2023-09-18T10:51:32;24.40;27.80
4354;DHT22;11018;51.258;6.806;2023-09-18T10:53:59;24.40;28.30
4354;DHT22;11018;51.258;6.806;2023-09-18T10:56:25;24.40;28.10
4354;DHT22;11018;51.258;6.806;2023-09-18T10:59:02;24.50;27.70
4354;DHT22;11018;51.258;6.806;2023-09-18T11:01:30;24.50;26.90
4354;DHT22;11018;51.258;6.806;2023-09-18T11:04:00;24.60;26.20
4354;DHT22;11018;51.258;6.806;2023-09-18T11:06:27;24.50;26.30
4354;DHT22;11018;51.258;6.806;2023-09-18T11:09:02;24.60;26.60
4354;DHT22;11018;51.258;6.806;2023-09-18T11:11:30;24.70;26.10
4354;DHT22;11018;51.258;6.806;2023-09-18T11:13:58;24.70;26.00
4354;DHT22;11018;51.258;6.806;2023-09-18T11:21:28;24.90;25.80
4354;DHT22;11018;51.258;6.806;2023-09-18T11:24:06;25.00;25.60
4354;DHT22;11018;51.258;6.806;2023-09-18T11:26:34;25.10;26.10
4354;DHT22;11018;51.258;6.806;2023-09-18T11:29:08;25.10;25.20
4354;DHT22;11018;51.258;6.806;2023-09-18T11:31:48;25.20;24.60
4354;DHT22;11018;51.258;6.806;2023-09-18T11:34:20;25.30;25.00
4354;DHT22;11018;51.258;6.806;2023-09-18T11:36:46;25.60;24.40
4354;DHT22;11018;51.258;6.806;2023-09-18T11:39:12;26.00;23.80
4354;DHT22;11018;51.258;6.806;2023-09-18T11:41:38;26.30;23.10
4354;DHT22;11018;51.258;6.806;2023-09-18T11:46:38;26.50;21.80
4354;DHT22;11018;51.258;6.806;2023-09-18T11:49:11;26.70;21.80
4354;DHT22;11018;51.258;6.806;2023-09-18T11:51:37;26.60;20.70
4354;DHT22;11018;51.258;6.806;2023-09-18T11:54:05;26.40;20.80
4354;DHT22;11018;51.258;6.806;2023-09-18T11:56:35;26.20;21.10
4354;DHT22;11018;51.258;6.806;2023-09-18T11:59:01;26.20;21.50
4354;DHT22;11018;51.258;6.806;2023-09-18T12:01:30;26.30;21.60
4354;DHT22;11018;51.258;6.806;2023-09-18T12:04:03;26.60;21.80
4354;DHT22;11018;51.258;6.806;2023-09-18T12:06:39;26.70;19.90
4354;DHT22;11018;51.258;6.806;2023-09-18T12:09:05;26.80;19.40
4354;DHT22;11018;51.258;6.806;2023-09-18T12:11:32;26.80;20.00
4354;DHT22;11018;51.258;6.806;2023-09-18T12:14:00;27.00;20.00
4354;DHT22;11018;51.258;6.806;2023-09-18T12:16:25;26.80;19.70
4354;DHT22;11018;51.258;6.806;2023-09-18T12:18:52;26.70;20.30
4354;DHT22;11018;51.258;6.806;2023-09-18T12:21:18;26.40;20.60
4354;DHT22;11018;51.258;6.806;2023-09-18T12:23:45;26.50;20.80
4354;DHT22;11018;51.258;6.806;2023-09-18T12:26:13;26.70;19.70
4354;DHT22;11018;51.258;6.806;2023-09-18T12:28:42;27.00;19.70
4354;DHT22;11018;51.258;6.806;2023-09-18T12:31:13;27.10;18.60
4354;DHT22;11018;51.258;6.806;2023-09-18T12:33:40;27.10;18.90
4354;DHT22;11018;51.258;6.806;2023-09-18T12:36:07;27.00;18.90
4354;DHT22;11018;51.258;6.806;2023-09-18T12:38:34;26.90;18.60
4354;DHT22;11018;51.258;6.806;2023-09-18T12:41:00;26.80;18.80
4354;DHT22;11018;51.258;6.806;2023-09-18T12:43:39;26.90;18.80
4354;DHT22;11018;51.258;6.806;2023-09-18T12:46:06;26.90;19.10
4354;DHT22;11018;51.258;6.806;2023-09-18T12:48:36;27.00;19.40
4354;DHT22;11018;51.258;6.806;2023-09-18T12:51:05;27.00;19.30
4354;DHT22;11018;51.258;6.806;2023-09-18T12:53:31;26.70;18.80
4354;DHT22;11018;51.258;6.806;2023-09-18T12:56:12;26.70;19.30
4354;DHT22;11018;51.258;6.806;2023-09-18T12:58:39;26.80;17.80
4354;DHT22;11018;51.258;6.806;2023-09-18T13:01:06;27.10;17.90
4354;DHT22;11018;51.258;6.806;2023-09-18T13:03:46;27.00;18.00
4354;DHT22;11018;51.258;6.806;2023-09-18T13:06:17;26.90;18.40
4354;DHT22;11018;51.258;6.806;2023-09-18T13:08:43;26.80;18.30
4354;DHT22;11018;51.258;6.806;2023-09-18T13:11:09;26.70;17.80
4354;DHT22;11018;51.258;6.806;2023-09-18T13:13:36;26.60;18.20
4354;DHT22;11018;51.258;6.806;2023-09-18T13:16:05;26.50;18.70
4354;DHT22;11018;51.258;6.806;2023-09-18T13:18:31;26.40;18.60
4354;DHT22;11018;51.258;6.806;2023-09-18T13:20:57;26.40;19.00
4354;DHT22;11018;51.258;6.806;2023-09-18T13:23:32;26.40;18.30
4354;DHT22;11018;51.258;6.806;2023-09-18T13:26:05;26.30;18.40
4354;DHT22;11018;51.258;6.806;2023-09-18T13:28:32;26.30;18.40
4354;DHT22;11018;51.258;6.806;2023-09-18T13:30:59;26.40;18.30
4354;DHT22;11018;51.258;6.806;2023-09-18T13:33:25;26.60;18.00
4354;DHT22;11018;51.258;6.806;2023-09-18T13:35:51;26.60;17.30
4354;DHT22;11018;51.258;6.806;2023-09-18T13:38:19;26.70;16.80
4354;DHT22;11018;51.258;6.806;2023-09-18T13:40:47;26.40;17.30
4354;DHT22;11018;51.258;6.806;2023-09-18T13:43:13;26.20;17.80
4354;DHT22;11018;51.258;6.806;2023-09-18T13:45:41;26.60;17.70
4354;DHT22;11018;51.258;6.806;2023-09-18T13:48:07;27.70;15.90
4354;DHT22;11018;51.258;6.806;2023-09-18T13:50:34;28.50;14.30
4354;DHT22;11018;51.258;6.806;2023-09-18T13:53:00;28.80;14.70
4354;DHT22;11018;51.258;6.806;2023-09-18T13:55:26;29.10;13.50
4354;DHT22;11018;51.258;6.806;2023-09-18T13:57:52;29.10;13.30
4354;DHT22;11018;51.258;6.806;2023-09-18T14:00:18;28.40;13.80
4354;DHT22;11018;51.258;6.806;2023-09-18T14:02:43;28.00;14.50
4354;DHT22;11018;51.258;6.806;2023-09-18T14:05:09;28.30;14.20
4354;DHT22;11018;51.258;6.806;2023-09-18T14:07:37;28.70;13.80
4354;DHT22;11018;51.258;6.806;2023-09-18T14:10:09;29.20;13.40
4354;DHT22;11018;51.258;6.806;2023-09-18T14:12:39;29.60;12.70
4354;DHT22;11018;51.258;6.806;2023-09-18T14:15:06;29.90;10.60
4354;DHT22;11018;51.258;6.806;2023-09-18T14:17:32;30.00;10.40
4354;DHT22;11018;51.258;6.806;2023-09-18T14:19:57;29.70;9.80
4354;DHT22;11018;51.258;6.806;2023-09-18T14:22:24;29.30;10.40
4354;DHT22;11018;51.258;6.806;2023-09-18T14:24:50;29.20;11.00
4354;DHT22;11018;51.258;6.806;2023-09-18T14:27:15;29.20;10.90
4354;DHT22;11018;51.258;6.806;2023-09-18T14:29:41;29.30;11.20
4354;DHT22;11018;51.258;6.806;2023-09-18T14:32:06;29.60;10.70
4354;DHT22;11018;51.258;6.806;2023-09-18T14:34:34;29.90;10.60
4354;DHT22;11018;51.258;6.806;2023-09-18T14:37:01;30.00;10.60
4354;DHT22;11018;51.258;6.806;2023-09-18T14:39:31;30.20;10.90
4354;DHT22;11018;51.258;6.806;2023-09-18T14:41:57;30.50;9.60
4354;DHT22;11018;51.258;6.806;2023-09-18T14:44:23;30.80;9.60
4354;DHT22;11018;51.258;6.806;2023-09-18T14:46:49;31.10;8.90
4354;DHT22;11018;51.258;6.806;2023-09-18T14:49:15;31.30;9.20
4354;DHT22;11018;51.258;6.806;2023-09-18T14:51:41;31.10;8.40
4354;DHT22;11018;51.258;6.806;2023-09-18T14:54:06;30.60;8.20
4354;DHT22;11018;51.258;6.806;2023-09-18T14:56:33;30.40;8.20
4354;DHT22;11018;51.258;6.806;2023-09-18T14:59:01;30.60;7.40
4354;DHT22;11018;51.258;6.806;2023-09-18T15:01:27;30.60;7.70
4354;DHT22;11018;51.258;6.806;2023-09-18T15:03:52;30.80;8.00
4354;DHT22;11018;51.258;6.806;2023-09-18T15:06:18;31.30;7.70
4354;DHT22;11018;51.258;6.806;2023-09-18T15:08:44;31.20;7.40
4354;DHT22;11018;51.258;6.806;2023-09-18T15:11:10;30.80;7.30
4354;DHT22;11018;51.258;6.806;2023-09-18T15:13:36;30.50;7.70
4354;DHT22;11018;51.258;6.806;2023-09-18T15:16:02;30.60;7.80
4354;DHT22;11018;51.258;6.806;2023-09-18T15:18:28;30.80;7.70
4354;DHT22;11018;51.258;6.806;2023-09-18T15:20:54;31.10;6.50
4354;DHT22;11018;51.258;6.806;2023-09-18T15:23:23;31.00;6.50
4354;DHT22;11018;51.258;6.806;2023-09-18T15:25:52;30.80;6.80
4354;DHT22;11018;51.258;6.806;2023-09-18T15:28:21;30.70;6.80
4354;DHT22;11018;51.258;6.806;2023-09-18T15:30:50;30.40;7.50
4354;DHT22;11018;51.258;6.806;2023-09-18T15:33:15;30.40;8.60
4354;DHT22;11018;51.258;6.806;2023-09-18T15:35:45;30.20;8.30
4354;DHT22;11018;51.258;6.806;2023-09-18T15:38:11;30.30;8.20
4354;DHT22;11018;51.258;6.806;2023-09-18T15:40:37;30.70;7.20
4354;DHT22;11018;51.258;6.806;2023-09-18T15:43:02;30.80;7.20
4354;DHT22;11018;51.258;6.806;2023-09-18T15:45:28;31.00;7.30
4354;DHT22;11018;51.258;6.806;2023-09-18T15:47:54;31.30;6.70
4354;DHT22;11018;51.258;6.806;2023-09-18T15:50:19;30.90;7.00
4354;DHT22;11018;51.258;6.806;2023-09-18T15:52:45;30.30;8.10
4354;DHT22;11018;51.258;6.806;2023-09-18T15:55:11;30.50;8.30
4354;DHT22;11018;51.258;6.806;2023-09-18T15:57:38;30.90;7.60
4354;DHT22;11018;51.258;6.806;2023-09-18T16:00:09;31.20;7.00